sensor_id;sensor_type;location;lat;lon;timestamp;temperature;humidity
23497;DHT22;11925;48.122;11.560;2022-12-29T00:11:11;9.50;99.90
23497;DHT22;11925;48.122;11.560;2022-12-29T00:13:42;9.50;99.90
23497;DHT22;11925;48.122;11.560;2022-12-29T00:16:27;9.50;99.90
23497;DHT22;11925;48.122;11.560;2022-12-29T00:21:25;9.40;99.90
23497;DHT22;11925;48.122;11.560;2022-12-29T00:24:13;9.50;99.90
23497;DHT22;11925;48.122;11.560;2022-12-29T00:27:10;9.40;99.90
23497;DHT22;11925;48.122;11.560;2022-12-29T00:29:54;9.50;99.90
23497;DHT22;11925;48.122;11.560;2022-12-29T00:35:29;9.30;99.90
23497;DHT22;11925;48.122;11.560;2022-12-29T00:38:02;9.40;99.90
23497;DHT22;11925;48.122;11.560;2022-12-29T00:40:49;9.60;99.90
23497;DHT22;11925;48.122;11.560;2022-12-29T00:46:22;9.80;99.90
23497;DHT22;11925;48.122;11.560;2022-12-29T00:48:50;9.50;99.90
23497;DHT22;11925;48.122;11.560;2022-12-29T00:51:36;9.40;99.90
23497;DHT22;11925;48.122;11.560;2022-12-29T00:56:34;9.40;99.90
23497;DHT22;11925;48.122;11.560;2022-12-29T00:59:02;9.50;99.90
23497;DHT22;11925;48.122;11.560;2022-12-29T01:01:33;9.50;99.90
23497;DHT22;11925;48.122;11.560;2022-12-29T01:04:02;9.20;99.90
23497;DHT22;11925;48.122;11.560;2022-12-29T01:09:00;9.50;99.90
23497;DHT22;11925;48.122;11.560;2022-12-29T01:14:15;9.50;99.80
23497;DHT22;11925;48.122;11.560;2022-12-29T01:31:40;9.90;97.70
23497;DHT22;11925;48.122;11.560;2022-12-29T01:34:10;9.50;96.20
23497;DHT22;11925;48.122;11.560;2022-12-29T01:36:38;9.50;96.00
23497;DHT22;11925;48.122;11.560;2022-12-29T01:47:07;9.60;96.10
23497;DHT22;11925;48.122;11.560;2022-12-29T01:49:38;9.50;96.70
23497;DHT22;11925;48.122;11.560;2022-12-29T01:52:07;9.50;96.00
23497;DHT22;11925;48.122;11.560;2022-12-29T01:54:38;9.40;96.20
23497;DHT22;11925;48.122;11.560;2022-12-29T01:57:14;9.70;99.90
23497;DHT22;11925;48.122;11.560;2022-12-29T01:59:49;8.70;95.40
23497;DHT22;11925;48.122;11.560;2022-12-29T02:04:49;9.40;95.80
23497;DHT22;11925;48.122;11.560;2022-12-29T02:07:19;9.40;95.90
23497;DHT22;11925;48.122;11.560;2022-12-29T02:09:50;9.60;99.90
23497;DHT22;11925;48.122;11.560;2022-12-29T02:12:21;9.40;96.10
23497;DHT22;11925;48.122;11.560;2022-12-29T02:14:54;9.70;95.90
23497;DHT22;11925;48.122;11.560;2022-12-29T02:17:32;9.40;96.20
23497;DHT22;11925;48.122;11.560;2022-12-29T02:20:26;9.50;94.40
23497;DHT22;11925;48.122;11.560;2022-12-29T02:23:15;9.40;95.80
23497;DHT22;11925;48.122;11.560;2022-12-29T02:26:13;9.40;99.90
23497;DHT22;11925;48.122;11.560;2022-12-29T02:29:00;9.40;95.50
23497;DHT22;11925;48.122;11.560;2022-12-29T02:31:38;9.40;99.90
23497;DHT22;11925;48.122;11.560;2022-12-29T02:34:20;9.40;96.40
23497;DHT22;11925;48.122;11.560;2022-12-29T02:36:54;9.40;97.00
23497;DHT22;11925;48.122;11.560;2022-12-29T02:39:32;9.30;99.90
23497;DHT22;11925;48.122;11.560;2022-12-29T02:42:08;9.40;98.50
23497;DHT22;11925;48.122;11.560;2022-12-29T02:44:46;9.40;99.90
23497;DHT22;11925;48.122;11.560;2022-12-29T02:47:23;9.40;98.20
23497;DHT22;11925;48.122;11.560;2022-12-29T02:49:59;9.40;98.00
23497;DHT22;11925;48.122;11.560;2022-12-29T02:52:33;9.50;97.90
23497;DHT22;11925;48.122;11.560;2022-12-29T02:55:04;9.30;99.70
23497;DHT22;11925;48.122;11.560;2022-12-29T02:57:33;9.40;97.70
23497;DHT22;11925;48.122;11.560;2022-12-29T03:00:05;9.50;97.70
23497;DHT22;11925;48.122;11.560;2022-12-29T03:02:51;9.40;97.70
23497;DHT22;11925;48.122;11.560;2022-12-29T03:05:44;9.50;98.10
23497;DHT22;11925;48.122;11.560;2022-12-29T03:08:21;9.40;97.80
23497;DHT22;11925;48.122;11.560;2022-12-29T03:10:59;9.40;97.80
23497;DHT22;11925;48.122;11.560;2022-12-29T03:13:36;9.50;97.90
23497;DHT22;11925;48.122;11.560;2022-12-29T03:16:28;9.50;99.90
23497;DHT22;11925;48.122;11.560;2022-12-29T03:19:06;9.50;98.60
23497;DHT22;11925;48.122;11.560;2022-12-29T03:21:38;9.60;97.80
23497;DHT22;11925;48.122;11.560;2022-12-29T03:24:29;9.40;97.80
23497;DHT22;11925;48.122;11.560;2022-12-29T03:27:00;9.40;97.90
23497;DHT22;11925;48.122;11.560;2022-12-29T03:29:37;9.50;98.40
23497;DHT22;11925;48.122;11.560;2022-12-29T03:32:08;9.50;98.30
23497;DHT22;11925;48.122;11.560;2022-12-29T03:34:41;9.50;98.20
23497;DHT22;11925;48.122;11.560;2022-12-29T03:37:12;9.40;97.30
23497;DHT22;11925;48.122;11.560;2022-12-29T03:42:19;9.40;95.10
23497;DHT22;11925;48.122;11.560;2022-12-29T03:49:48;10.10;95.80
23497;DHT22;11925;48.122;11.560;2022-12-29T04:02:28;9.20;97.30
23497;DHT22;11925;48.122;11.560;2022-12-29T04:04:59;9.40;99.90
23497;DHT22;11925;48.122;11.560;2022-12-29T04:22:44;9.50;99.90
23497;DHT22;11925;48.122;11.560;2022-12-29T04:38:09;9.50;99.90
23497;DHT22;11925;48.122;11.560;2022-12-29T05:11:31;9.50;99.80
23497;DHT22;11925;48.122;11.560;2022-12-29T05:29:18;9.40;99.90
23497;DHT22;11925;48.122;11.560;2022-12-29T05:34:16;9.60;99.60
23497;DHT22;11925;48.122;11.560;2022-12-29T05:44:28;9.60;99.90
23497;DHT22;11925;48.122;11.560;2022-12-29T05:47:29;9.70;99.90
23497;DHT22;11925;48.122;11.560;2022-12-29T05:53:16;9.90;99.90
23497;DHT22;11925;48.122;11.560;2022-12-29T05:55:46;9.60;99.90
23497;DHT22;11925;48.122;11.560;2022-12-29T05:58:16;8.40;99.90
23497;DHT22;11925;48.122;11.560;2022-12-29T06:00:48;9.60;99.90
23497;DHT22;11925;48.122;11.560;2022-12-29T06:18:15;9.70;99.90
23497;DHT22;11925;48.122;11.560;2022-12-29T06:23:17;9.70;99.90
23497;DHT22;11925;48.122;11.560;2022-12-29T06:25:47;9.50;99.90
23497;DHT22;11925;48.122;11.560;2022-12-29T06:33:16;10.80;99.90
23497;DHT22;11925;48.122;11.560;2022-12-29T06:48:51;9.60;99.90
23497;DHT22;11925;48.122;11.560;2022-12-29T07:03:42;9.00;99.80
23497;DHT22;11925;48.122;11.560;2022-12-29T07:06:12;9.60;99.90
23497;DHT22;11925;48.122;11.560;2022-12-29T07:16:07;9.50;99.90
23497;DHT22;11925;48.122;11.560;2022-12-29T07:18:36;9.50;99.90
23497;DHT22;11925;48.122;11.560;2022-12-29T07:23:34;9.60;99.90
23497;DHT22;11925;48.122;11.560;2022-12-29T07:26:05;9.50;99.90
23497;DHT22;11925;48.122;11.560;2022-12-29T07:28:34;9.60;99.90
23497;DHT22;11925;48.122;11.560;2022-12-29T07:41:00;9.60;99.90
23497;DHT22;11925;48.122;11.560;2022-12-29T07:56:48;9.60;99.90
23497;DHT22;11925;48.122;11.560;2022-12-29T08:09:12;9.30;99.10
23497;DHT22;11925;48.122;11.560;2022-12-29T08:11:50;9.60;99.90
23497;DHT22;11925;48.122;11.560;2022-12-29T08:14:18;9.60;99.90
23497;DHT22;11925;48.122;11.560;2022-12-29T08:21:44;9.60;99.90
23497;DHT22;11925;48.122;11.560;2022-12-29T08:29:11;9.60;99.90
23497;DHT22;11925;48.122;11.560;2022-12-29T08:34:08;9.70;99.70
23497;DHT22;11925;48.122;11.560;2022-12-29T08:46:32;9.70;99.90
23497;DHT22;11925;48.122;11.560;2022-12-29T09:03:59;9.70;99.90
23497;DHT22;11925;48.122;11.560;2022-12-29T09:11:42;9.90;99.90
23497;DHT22;11925;48.122;11.560;2022-12-29T09:14:11;9.90;99.90
23497;DHT22;11925;48.122;11.560;2022-12-29T09:16:40;9.70;99.90
23497;DHT22;11925;48.122;11.560;2022-12-29T09:19:27;9.80;99.90
23497;DHT22;11925;48.122;11.560;2022-12-29T09:21:55;9.70;99.90
23497;DHT22;11925;48.122;11.560;2022-12-29T09:36:48;9.80;99.90
23497;DHT22;11925;48.122;11.560;2022-12-29T09:41:49;9.60;99.90
23497;DHT22;11925;48.122;11.560;2022-12-29T09:44:25;10.20;99.90
23497;DHT22;11925;48.122;11.560;2022-12-29T09:46:55;9.80;99.90
23497;DHT22;11925;48.122;11.560;2022-12-29T09:49:28;9.70;99.90
23497;DHT22;11925;48.122;11.560;2022-12-29T09:52:04;9.80;99.90
23497;DHT22;11925;48.122;11.560;2022-12-29T09:54:40;9.90;99.90
23497;DHT22;11925;48.122;11.560;2022-12-29T09:57:14;9.70;99.90
23497;DHT22;11925;48.122;11.560;2022-12-29T09:59:45;9.80;99.90
23497;DHT22;11925;48.122;11.560;2022-12-29T10:02:31;9.80;99.90
23497;DHT22;11925;48.122;11.560;2022-12-29T10:07:44;9.80;99.90
23497;DHT22;11925;48.122;11.560;2022-12-29T10:10:26;9.80;99.90
23497;DHT22;11925;48.122;11.560;2022-12-29T10:13:05;9.80;99.90
23497;DHT22;11925;48.122;11.560;2022-12-29T10:15:52;9.80;99.40
23497;DHT22;11925;48.122;11.560;2022-12-29T10:18:44;9.70;97.70
23497;DHT22;11925;48.122;11.560;2022-12-29T10:21:24;9.90;96.70
23497;DHT22;11925;48.122;11.560;2022-12-29T10:23:59;9.90;94.20
23497;DHT22;11925;48.122;11.560;2022-12-29T10:26:33;9.70;93.10
23497;DHT22;11925;48.122;11.560;2022-12-29T10:29:05;9.60;94.50
23497;DHT22;11925;48.122;11.560;2022-12-29T10:31:38;9.80;93.60
23497;DHT22;11925;48.122;11.560;2022-12-29T10:34:19;9.80;93.50
23497;DHT22;11925;48.122;11.560;2022-12-29T10:36:50;9.80;99.00
23497;DHT22;11925;48.122;11.560;2022-12-29T10:39:30;9.80;93.90
23497;DHT22;11925;48.122;11.560;2022-12-29T10:42:07;9.90;96.20
23497;DHT22;11925;48.122;11.560;2022-12-29T10:44:38;10.30;98.00
23497;DHT22;11925;48.122;11.560;2022-12-29T10:47:11;9.90;93.90
23497;DHT22;11925;48.122;11.560;2022-12-29T10:49:41;9.80;94.10
23497;DHT22;11925;48.122;11.560;2022-12-29T10:52:11;10.10;95.20
23497;DHT22;11925;48.122;11.560;2022-12-29T10:54:47;9.90;95.00
23497;DHT22;11925;48.122;11.560;2022-12-29T10:57:25;9.80;98.40
23497;DHT22;11925;48.122;11.560;2022-12-29T10:59:55;9.90;93.40
23497;DHT22;11925;48.122;11.560;2022-12-29T11:02:43;10.00;99.80
23497;DHT22;11925;48.122;11.560;2022-12-29T11:05:19;9.90;95.30
23497;DHT22;11925;48.122;11.560;2022-12-29T11:07:53;9.90;95.10
23497;DHT22;11925;48.122;11.560;2022-12-29T11:10:35;9.80;94.80
23497;DHT22;11925;48.122;11.560;2022-12-29T11:13:11;10.10;99.90
23497;DHT22;11925;48.122;11.560;2022-12-29T11:15:41;9.90;99.90
23497;DHT22;11925;48.122;11.560;2022-12-29T11:18:23;10.00;95.80
23497;DHT22;11925;48.122;11.560;2022-12-29T11:20:54;10.10;95.20
23497;DHT22;11925;48.122;11.560;2022-12-29T11:23:26;10.00;92.60
23497;DHT22;11925;48.122;11.560;2022-12-29T11:26:15;9.90;94.10
23497;DHT22;11925;48.122;11.560;2022-12-29T11:28:46;10.00;95.70
23497;DHT22;11925;48.122;11.560;2022-12-29T11:31:18;11.30;95.40
23497;DHT22;11925;48.122;11.560;2022-12-29T11:36:21;9.90;97.00
23497;DHT22;11925;48.122;11.560;2022-12-29T11:38:51;10.00;94.80
23497;DHT22;11925;48.122;11.560;2022-12-29T11:41:23;10.10;95.00
23497;DHT22;11925;48.122;11.560;2022-12-29T11:43:51;10.00;95.50
23497;DHT22;11925;48.122;11.560;2022-12-29T11:46:23;10.00;95.10
23497;DHT22;11925;48.122;11.560;2022-12-29T11:51:27;9.50;95.60
23497;DHT22;11925;48.122;11.560;2022-12-29T11:53:57;10.10;94.70
23497;DHT22;11925;48.122;11.560;2022-12-29T11:56:36;10.10;94.20
23497;DHT22;11925;48.122;11.560;2022-12-29T11:59:34;10.30;93.80
23497;DHT22;11925;48.122;11.560;2022-12-29T12:02:36;10.20;93.00
23497;DHT22;11925;48.122;11.560;2022-12-29T12:05:23;10.20;93.80
23497;DHT22;11925;48.122;11.560;2022-12-29T12:07:59;9.90;95.60
23497;DHT22;11925;48.122;11.560;2022-12-29T12:10:36;10.20;95.20
23497;DHT22;11925;48.122;11.560;2022-12-29T12:13:15;10.20;95.40
23497;DHT22;11925;48.122;11.560;2022-12-29T12:15:51;10.20;94.90
23497;DHT22;11925;48.122;11.560;2022-12-29T12:18:34;10.20;95.30
23497;DHT22;11925;48.122;11.560;2022-12-29T12:21:12;10.20;96.40
23497;DHT22;11925;48.122;11.560;2022-12-29T12:23:57;9.90;94.80
23497;DHT22;11925;48.122;11.560;2022-12-29T12:26:32;10.20;96.30
23497;DHT22;11925;48.122;11.560;2022-12-29T12:29:10;10.20;96.50
23497;DHT22;11925;48.122;11.560;2022-12-29T12:31:45;10.10;96.30
23497;DHT22;11925;48.122;11.560;2022-12-29T12:34:19;10.60;96.80
23497;DHT22;11925;48.122;11.560;2022-12-29T12:37:02;10.20;95.90
23497;DHT22;11925;48.122;11.560;2022-12-29T12:39:39;10.20;96.70
23497;DHT22;11925;48.122;11.560;2022-12-29T12:42:23;10.20;97.00
23497;DHT22;11925;48.122;11.560;2022-12-29T12:45:03;10.40;99.90
23497;DHT22;11925;48.122;11.560;2022-12-29T12:47:50;10.30;99.90
23497;DHT22;11925;48.122;11.560;2022-12-29T12:50:41;10.30;96.30
23497;DHT22;11925;48.122;11.560;2022-12-29T12:53:40;10.20;96.50
23497;DHT22;11925;48.122;11.560;2022-12-29T12:56:33;10.50;99.90
23497;DHT22;11925;48.122;11.560;2022-12-29T12:59:14;10.30;98.10
23497;DHT22;11925;48.122;11.560;2022-12-29T13:01:52;10.30;98.40
23497;DHT22;11925;48.122;11.560;2022-12-29T13:04:53;10.80;98.50
23497;DHT22;11925;48.122;11.560;2022-12-29T13:07:35;10.30;98.90
23497;DHT22;11925;48.122;11.560;2022-12-29T13:10:35;10.20;97.40
23497;DHT22;11925;48.122;11.560;2022-12-29T13:13:34;10.30;99.10
23497;DHT22;11925;48.122;11.560;2022-12-29T13:16:10;10.30;98.70
23497;DHT22;11925;48.122;11.560;2022-12-29T13:18:49;10.30;98.70
23497;DHT22;11925;48.122;11.560;2022-12-29T13:21:31;10.50;99.10
23497;DHT22;11925;48.122;11.560;2022-12-29T13:24:05;10.10;99.90
23497;DHT22;11925;48.122;11.560;2022-12-29T13:26:40;10.40;99.20
23497;DHT22;11925;48.122;11.560;2022-12-29T13:29:16;10.40;99.30
23497;DHT22;11925;48.122;11.560;2022-12-29T13:31:52;10.40;99.50
23497;DHT22;11925;48.122;11.560;2022-12-29T13:34:29;10.20;99.40
23497;DHT22;11925;48.122;11.560;2022-12-29T13:37:01;10.00;99.90
23497;DHT22;11925;48.122;11.560;2022-12-29T13:39:31;10.40;99.90
23497;DHT22;11925;48.122;11.560;2022-12-29T13:42:02;10.70;92.40
23497;DHT22;11925;48.122;11.560;2022-12-29T13:44:34;10.80;92.10
23497;DHT22;11925;48.122;11.560;2022-12-29T13:47:10;10.90;94.50
23497;DHT22;11925;48.122;11.560;2022-12-29T13:49:44;10.90;95.10
23497;DHT22;11925;48.122;11.560;2022-12-29T13:52:18;10.80;99.90
23497;DHT22;11925;48.122;11.560;2022-12-29T13:54:56;10.90;94.20
23497;DHT22;11925;48.122;11.560;2022-12-29T13:57:38;10.70;92.60
23497;DHT22;11925;48.122;11.560;2022-12-29T14:18:09;10.70;92.90
23497;DHT22;11925;48.122;11.560;2022-12-29T14:23:27;11.00;99.90
23497;DHT22;11925;48.122;11.560;2022-12-29T14:28:27;10.80;99.90
23497;DHT22;11925;48.122;11.560;2022-12-29T14:38:27;11.00;96.60
23497;DHT22;11925;48.122;11.560;2022-12-29T14:41:18;10.60;99.90
23497;DHT22;11925;48.122;11.560;2022-12-29T14:43:54;10.70;99.90
23497;DHT22;11925;48.122;11.560;2022-12-29T14:46:24;10.70;99.90
23497;DHT22;11925;48.122;11.560;2022-12-29T14:48:57;10.50;99.90
23497;DHT22;11925;48.122;11.560;2022-12-29T14:51:32;10.70;99.90
23497;DHT22;11925;48.122;11.560;2022-12-29T14:57:08;10.70;99.90
23497;DHT22;11925;48.122;11.560;2022-12-29T15:02:17;10.70;99.60
23497;DHT22;11925;48.122;11.560;2022-12-29T15:04:47;10.70;99.90
23497;DHT22;11925;48.122;11.560;2022-12-29T15:07:18;10.70;99.90
23497;DHT22;11925;48.122;11.560;2022-12-29T15:09:52;10.70;99.90
23497;DHT22;11925;48.122;11.560;2022-12-29T15:12:30;10.70;99.90
23497;DHT22;11925;48.122;11.560;2022-12-29T15:15:01;10.80;99.90
23497;DHT22;11925;48.122;11.560;2022-12-29T15:22:44;10.60;99.90
23497;DHT22;11925;48.122;11.560;2022-12-29T15:25:16;10.80;99.90
23497;DHT22;11925;48.122;11.560;2022-12-29T15:27:49;10.70;99.60
23497;DHT22;11925;48.122;11.560;2022-12-29T15:30:18;10.70;99.50
23497;DHT22;11925;48.122;11.560;2022-12-29T15:32:51;10.70;99.90
23497;DHT22;11925;48.122;11.560;2022-12-29T15:35:26;10.70;99.90
23497;DHT22;11925;48.122;11.560;2022-12-29T15:37:57;10.70;99.00
23497;DHT22;11925;48.122;11.560;2022-12-29T15:40:27;10.70;99.90
23497;DHT22;11925;48.122;11.560;2022-12-29T15:46:01;10.80;99.90
23497;DHT22;11925;48.122;11.560;2022-12-29T15:48:30;10.70;99.10
23497;DHT22;11925;48.122;11.560;2022-12-29T15:51:00;10.60;99.30
23497;DHT22;11925;48.122;11.560;2022-12-29T15:53:31;10.70;98.60
23497;DHT22;11925;48.122;11.560;2022-12-29T15:56:01;10.70;99.50
23497;DHT22;11925;48.122;11.560;2022-12-29T15:58:41;10.90;99.90
23497;DHT22;11925;48.122;11.560;2022-12-29T16:01:18;10.70;99.10
23497;DHT22;11925;48.122;11.560;2022-12-29T16:03:47;10.80;98.40
23497;DHT22;11925;48.122;11.560;2022-12-29T16:06:27;10.70;99.90
23497;DHT22;11925;48.122;11.560;2022-12-29T16:08:59;10.70;99.90
23497;DHT22;11925;48.122;11.560;2022-12-29T16:11:34;10.60;99.70
23497;DHT22;11925;48.122;11.560;2022-12-29T16:14:07;10.70;99.10
23497;DHT22;11925;48.122;11.560;2022-12-29T16:16:38;10.80;99.90
23497;DHT22;11925;48.122;11.560;2022-12-29T16:21:42;10.90;99.00
23497;DHT22;11925;48.122;11.560;2022-12-29T16:24:15;10.60;99.90
23497;DHT22;11925;48.122;11.560;2022-12-29T16:26:49;10.40;99.90
23497;DHT22;11925;48.122;11.560;2022-12-29T16:29:19;10.00;99.60
23497;DHT22;11925;48.122;11.560;2022-12-29T16:31:54;10.70;99.80
23497;DHT22;11925;48.122;11.560;2022-12-29T16:34:30;10.70;99.90
23497;DHT22;11925;48.122;11.560;2022-12-29T16:37:00;10.80;99.90
23497;DHT22;11925;48.122;11.560;2022-12-29T16:39:37;10.90;99.90
23497;DHT22;11925;48.122;11.560;2022-12-29T16:42:34;10.60;99.90
23497;DHT22;11925;48.122;11.560;2022-12-29T16:48:32;8.70;99.00
23497;DHT22;11925;48.122;11.560;2022-12-29T16:51:03;10.80;99.10
23497;DHT22;11925;48.122;11.560;2022-12-29T16:53:34;10.70;99.90
23497;DHT22;11925;48.122;11.560;2022-12-29T16:56:08;10.80;99.90
23497;DHT22;11925;48.122;11.560;2022-12-29T16:58:46;10.70;99.90
23497;DHT22;11925;48.122;11.560;2022-12-29T17:03:49;10.80;99.90
23497;DHT22;11925;48.122;11.560;2022-12-29T17:06:19;10.80;99.90
23497;DHT22;11925;48.122;11.560;2022-12-29T17:08:49;10.90;99.90
23497;DHT22;11925;48.122;11.560;2022-12-29T17:11:22;10.90;99.90
23497;DHT22;11925;48.122;11.560;2022-12-29T17:14:21;10.80;99.90
23497;DHT22;11925;48.122;11.560;2022-12-29T17:16:51;10.80;99.90
23497;DHT22;11925;48.122;11.560;2022-12-29T17:19:22;10.80;99.90
23497;DHT22;11925;48.122;11.560;2022-12-29T17:26:55;10.30;99.90
23497;DHT22;11925;48.122;11.560;2022-12-29T17:29:31;10.80;99.90
23497;DHT22;11925;48.122;11.560;2022-12-29T17:32:02;10.80;99.90
23497;DHT22;11925;48.122;11.560;2022-12-29T17:34:32;10.80;99.90
23497;DHT22;11925;48.122;11.560;2022-12-29T17:41:59;10.80;99.30
23497;DHT22;11925;48.122;11.560;2022-12-29T17:44:27;10.90;98.60
23497;DHT22;11925;48.122;11.560;2022-12-29T17:54:23;10.80;97.50
23497;DHT22;11925;48.122;11.560;2022-12-29T17:56:52;11.00;99.90
23497;DHT22;11925;48.122;11.560;2022-12-29T18:09:17;11.10;99.90
23497;DHT22;11925;48.122;11.560;2022-12-29T18:11:47;11.00;99.10
23497;DHT22;11925;48.122;11.560;2022-12-29T18:14:16;10.70;97.40
23497;DHT22;11925;48.122;11.560;2022-12-29T18:16:46;10.80;96.90
23497;DHT22;11925;48.122;11.560;2022-12-29T18:24:13;10.70;99.90
23497;DHT22;11925;48.122;11.560;2022-12-29T18:34:12;10.80;96.20
23497;DHT22;11925;48.122;11.560;2022-12-29T18:41:39;10.30;96.30
23497;DHT22;11925;48.122;11.560;2022-12-29T18:44:11;10.70;95.70
23497;DHT22;11925;48.122;11.560;2022-12-29T18:49:08;10.60;97.50
23497;DHT22;11925;48.122;11.560;2022-12-29T18:51:38;10.50;99.90
23497;DHT22;11925;48.122;11.560;2022-12-29T18:54:26;10.50;99.90
23497;DHT22;11925;48.122;11.560;2022-12-29T18:56:55;10.70;96.10
23497;DHT22;11925;48.122;11.560;2022-12-29T18:59:24;10.60;95.70
23497;DHT22;11925;48.122;11.560;2022-12-29T19:06:51;10.60;94.80
23497;DHT22;11925;48.122;11.560;2022-12-29T19:19:15;10.60;95.10
23497;DHT22;11925;48.122;11.560;2022-12-29T19:24:13;10.30;96.60
23497;DHT22;11925;48.122;11.560;2022-12-29T19:29:13;10.60;95.40
23497;DHT22;11925;48.122;11.560;2022-12-29T19:34:12;10.70;95.80
23497;DHT22;11925;48.122;11.560;2022-12-29T19:39:10;10.60;96.70
23497;DHT22;11925;48.122;11.560;2022-12-29T19:41:40;10.60;96.50
23497;DHT22;11925;48.122;11.560;2022-12-29T19:59:02;10.70;99.90
23497;DHT22;11925;48.122;11.560;2022-12-29T20:06:28;10.80;99.90
23497;DHT22;11925;48.122;11.560;2022-12-29T20:13:55;11.50;96.60
23497;DHT22;11925;48.122;11.560;2022-12-29T20:16:24;11.40;97.50
23497;DHT22;11925;48.122;11.560;2022-12-29T20:18:53;11.10;97.60
23497;DHT22;11925;48.122;11.560;2022-12-29T20:21:23;11.20;98.70
23497;DHT22;11925;48.122;11.560;2022-12-29T20:23:52;11.10;99.90
23497;DHT22;11925;48.122;11.560;2022-12-29T20:26:23;11.40;99.90
23497;DHT22;11925;48.122;11.560;2022-12-29T20:28:52;11.20;99.90
23497;DHT22;11925;48.122;11.560;2022-12-29T20:31:25;11.20;99.90
23497;DHT22;11925;48.122;11.560;2022-12-29T20:33:53;11.10;99.90
23497;DHT22;11925;48.122;11.560;2022-12-29T20:36:23;11.30;99.70
23497;DHT22;11925;48.122;11.560;2022-12-29T20:38:53;11.20;99.80
23497;DHT22;11925;48.122;11.560;2022-12-29T20:43:51;11.30;99.90
23497;DHT22;11925;48.122;11.560;2022-12-29T20:46:20;11.20;99.60
23497;DHT22;11925;48.122;11.560;2022-12-29T20:48:59;11.20;99.80
23497;DHT22;11925;48.122;11.560;2022-12-29T20:54:17;11.50;99.90
23497;DHT22;11925;48.122;11.560;2022-12-29T20:56:46;11.60;99.90
23497;DHT22;11925;48.122;11.560;2022-12-29T21:04:25;11.50;99.90
23497;DHT22;11925;48.122;11.560;2022-12-29T21:21:49;11.20;99.70
23497;DHT22;11925;48.122;11.560;2022-12-29T21:39:11;11.00;99.90
23497;DHT22;11925;48.122;11.560;2022-12-29T21:46:57;11.00;99.60
23497;DHT22;11925;48.122;11.560;2022-12-29T21:49:25;11.00;99.90
23497;DHT22;11925;48.122;11.560;2022-12-29T21:51:54;11.10;98.50
23497;DHT22;11925;48.122;11.560;2022-12-29T21:54:27;11.20;99.90
23497;DHT22;11925;48.122;11.560;2022-12-29T21:57:15;11.10;98.70
23497;DHT22;11925;48.122;11.560;2022-12-29T22:00:06;11.00;99.10
23497;DHT22;11925;48.122;11.560;2022-12-29T22:02:52;11.10;97.90
23497;DHT22;11925;48.122;11.560;2022-12-29T22:08:35;11.20;99.90
23497;DHT22;11925;48.122;11.560;2022-12-29T22:11:22;11.00;99.90
23497;DHT22;11925;48.122;11.560;2022-12-29T22:14:08;11.10;99.90
23497;DHT22;11925;48.122;11.560;2022-12-29T22:16:36;10.90;99.90
23497;DHT22;11925;48.122;11.560;2022-12-29T22:21:34;11.10;99.90
23497;DHT22;11925;48.122;11.560;2022-12-29T22:24:03;11.30;99.90
23497;DHT22;11925;48.122;11.560;2022-12-29T22:26:33;11.10;99.60
23497;DHT22;11925;48.122;11.560;2022-12-29T22:34:01;11.10;96.30
23497;DHT22;11925;48.122;11.560;2022-12-29T22:36:30;11.10;97.50
23497;DHT22;11925;48.122;11.560;2022-12-29T22:41:27;10.60;99.90
23497;DHT22;11925;48.122;11.560;2022-12-29T22:43:57;11.10;97.90
23497;DHT22;11925;48.122;11.560;2022-12-29T22:46:25;11.10;99.90
23497;DHT22;11925;48.122;11.560;2022-12-29T22:48:55;10.90;99.90
23497;DHT22;11925;48.122;11.560;2022-12-29T22:56:21;11.60;98.50
23497;DHT22;11925;48.122;11.560;2022-12-29T22:58:49;11.10;99.90
23497;DHT22;11925;48.122;11.560;2022-12-29T23:01:19;11.10;99.90
23497;DHT22;11925;48.122;11.560;2022-12-29T23:03:48;11.10;99.90
23497;DHT22;11925;48.122;11.560;2022-12-29T23:08:46;11.10;99.90
23497;DHT22;11925;48.122;11.560;2022-12-29T23:13:43;11.30;99.90
23497;DHT22;11925;48.122;11.560;2022-12-29T23:16:13;10.40;99.80
23497;DHT22;11925;48.122;11.560;2022-12-29T23:26:24;11.00;99.90
23497;DHT22;11925;48.122;11.560;2022-12-29T23:28:54;11.30;99.90
23497;DHT22;11925;48.122;11.560;2022-12-29T23:36:26;11.20;99.90
23497;DHT22;11925;48.122;11.560;2022-12-29T23:41:24;11.00;99.90
23497;DHT22;11925;48.122;11.560;2022-12-29T23:46:22;11.00;99.90
23497;DHT22;11925;48.122;11.560;2022-12-29T23:48:51;11.40;99.70
